createdAt,value
2023-01-03T00:01:15.134Z,83.89
2023-01-03T00:03:42.420Z,85.86
2023-01-03T00:06:17.992Z,83.63
2023-01-03T00:08:45.497Z,85.06
2023-01-03T00:11:18.874Z,85.74
2023-01-03T00:13:46.325Z,83.50
2023-01-03T00:16:20.248Z,83.62
2023-01-03T00:18:47.541Z,83.70
2023-01-03T00:21:15.665Z,85.29
2023-01-03T00:23:43.578Z,84.65
2023-01-03T00:26:12.766Z,84.26
2023-01-03T00:28:40.112Z,82.62
2023-01-03T00:31:09.022Z,83.40
2023-01-03T00:33:39.026Z,84.58
2023-01-03T00:36:08.352Z,85.66
2023-01-03T00:38:36.496Z,84.43
2023-01-03T00:41:10.791Z,84.35
2023-01-03T00:43:39.232Z,86.55
2023-01-03T00:46:07.383Z,84.21
2023-01-03T00:48:35.128Z,85.41
2023-01-03T00:51:16.401Z,83.97
2023-01-03T00:53:45.845Z,87.10
2023-01-03T00:56:17.191Z,83.88
2023-01-03T00:58:44.765Z,85.18
2023-01-03T01:01:18.023Z,83.71
2023-01-03T01:03:52.434Z,85.49
2023-01-03T01:06:25.256Z,84.57
2023-01-03T01:08:54.661Z,85.05
2023-01-03T01:11:22.597Z,87.55
2023-01-03T01:13:50.430Z,87.17
2023-01-03T01:16:21.043Z,85.58
2023-01-03T01:18:50.196Z,86.62
2023-01-03T01:21:23.427Z,85.42
2023-01-03T01:23:50.995Z,83.89
2023-01-03T01:26:19.646Z,84.20
2023-01-03T01:28:48.096Z,85.14
2023-01-03T01:31:18.723Z,85.76
2023-01-03T01:33:46.317Z,84.65
2023-01-03T01:36:19.860Z,84.50
2023-01-03T01:38:48.365Z,83.22
2023-01-03T01:41:40.967Z,84.87
2023-01-03T01:44:41.457Z,85.44
2023-01-03T01:47:18.155Z,85.20
2023-01-03T01:49:47.589Z,84.75
2023-01-03T01:52:17.123Z,85.81
2023-01-03T01:54:45.202Z,83.77
2023-01-03T01:57:16.800Z,86.81
2023-01-03T01:59:44.588Z,85.06
2023-01-03T02:02:15.295Z,84.32
2023-01-03T02:04:42.792Z,84.09
2023-01-03T02:07:10.120Z,84.06
2023-01-03T02:09:38.526Z,81.67
2023-01-03T02:12:45.729Z,82.47
2023-01-03T02:15:22.110Z,81.30
2023-01-03T02:18:16.965Z,84.37
2023-01-03T02:20:59.305Z,84.61
2023-01-03T02:23:48.477Z,83.78
2023-01-03T02:26:28.032Z,84.51
2023-01-03T02:29:06.215Z,82.21
2023-01-03T02:32:00.899Z,83.93
2023-01-03T02:34:48.212Z,84.30
2023-01-03T02:37:55.511Z,84.42
2023-01-03T02:40:31.843Z,83.26
2023-01-03T02:43:06.229Z,83.54
2023-01-03T02:45:52.085Z,83.25
2023-01-03T02:48:44.803Z,84.49
2023-01-03T02:51:23.766Z,82.39
2023-01-03T02:53:51.535Z,83.16
2023-01-03T02:56:28.994Z,83.57
2023-01-03T02:59:02.480Z,81.62
2023-01-03T03:01:30.488Z,81.03
2023-01-03T03:03:58.450Z,82.57
2023-01-03T03:06:33.068Z,83.92
2023-01-03T03:09:00.414Z,80.15
2023-01-03T03:11:48.472Z,82.09
2023-01-03T03:14:18.387Z,83.36
2023-01-03T03:16:49.648Z,82.37
2023-01-03T03:19:44.727Z,81.67
2023-01-03T03:23:12.239Z,83.27
2023-01-03T03:25:55.024Z,81.69
2023-01-03T03:28:36.449Z,81.28
2023-01-03T03:31:08.026Z,81.89
2023-01-03T03:34:15.623Z,80.91
2023-01-03T03:37:00.527Z,83.12
2023-01-03T03:39:47.363Z,83.63
2023-01-03T03:42:46.001Z,84.29
2023-01-03T03:45:20.041Z,82.55
2023-01-03T03:47:51.443Z,82.99
2023-01-03T03:50:30.195Z,81.15
2023-01-03T03:53:02.576Z,81.74
2023-01-03T03:55:51.906Z,84.51
2023-01-03T03:58:23.629Z,83.71
2023-01-03T04:00:52.183Z,82.20
2023-01-03T04:03:21.739Z,83.69
2023-01-03T04:06:02.113Z,82.50
2023-01-03T04:08:29.565Z,80.39
2023-01-03T04:11:05.649Z,84.73
2023-01-03T04:13:34.213Z,83.32
2023-01-03T04:16:01.947Z,84.17
2023-01-03T04:18:29.258Z,83.06
2023-01-03T04:20:56.571Z,82.07
2023-01-03T04:23:24.039Z,83.83
2023-01-03T04:25:51.506Z,82.45
2023-01-03T04:28:19.054Z,82.00
2023-01-03T04:30:46.686Z,79.46
2023-01-03T04:33:14.359Z,81.33
2023-01-03T04:35:41.758Z,84.82
2023-01-03T04:38:09.291Z,82.61
2023-01-03T04:40:38.774Z,87.25
2023-01-03T04:43:24.527Z,87.69
2023-01-03T04:45:52.106Z,83.27
2023-01-03T04:48:19.514Z,82.28
2023-01-03T04:50:57.042Z,87.27
2023-01-03T04:53:25.280Z,87.17
2023-01-03T04:55:53.806Z,83.00
2023-01-03T04:58:21.128Z,87.16
2023-01-03T05:00:48.714Z,87.95
2023-01-03T05:03:18.241Z,84.99
2023-01-03T05:05:47.417Z,85.58
2023-01-03T05:08:14.658Z,85.38
2023-01-03T05:10:41.985Z,82.64
2023-01-03T05:13:09.421Z,83.41
2023-01-03T05:15:38.095Z,81.74
2023-01-03T05:18:05.807Z,79.44
2023-01-03T05:20:54.862Z,86.43
2023-01-03T05:23:41.673Z,83.47
2023-01-03T05:26:14.745Z,83.67
2023-01-03T05:28:43.801Z,79.30
2023-01-03T05:31:11.175Z,84.23
2023-01-03T05:33:39.306Z,84.38
2023-01-03T05:36:07.071Z,80.41
2023-01-03T05:38:34.407Z,82.36
2023-01-03T05:41:01.644Z,80.56
2023-01-03T05:43:29.067Z,81.09
2023-01-03T05:45:56.676Z,82.70
2023-01-03T05:48:24.087Z,83.30
2023-01-03T05:50:52.261Z,80.85
2023-01-03T05:53:19.743Z,86.06
2023-01-03T05:55:47.088Z,85.39
2023-01-03T05:58:14.599Z,84.18
2023-01-03T06:00:41.851Z,84.93
2023-01-03T06:03:09.343Z,82.23
2023-01-03T06:05:36.673Z,85.02
2023-01-03T06:08:04.001Z,83.05
2023-01-03T06:10:31.372Z,83.99
2023-01-03T06:12:59.468Z,82.47
2023-01-03T06:15:26.863Z,85.29
2023-01-03T06:18:02.247Z,86.71
2023-01-03T06:20:30.127Z,86.46
2023-01-03T06:22:57.652Z,82.08
2023-01-03T06:25:25.446Z,83.28
2023-01-03T06:27:52.701Z,84.17
2023-01-03T06:30:20.928Z,83.04
2023-01-03T06:32:48.641Z,85.02
2023-01-03T06:35:16.091Z,85.15
2023-01-03T06:37:43.448Z,82.43
2023-01-03T06:40:11.147Z,82.09
2023-01-03T06:42:45.122Z,82.95
2023-01-03T06:45:32.763Z,85.48
2023-01-03T06:48:25.512Z,83.94
2023-01-03T06:51:11.193Z,83.34
2023-01-03T06:53:39.850Z,84.71
2023-01-03T06:56:07.635Z,84.77
2023-01-03T06:58:35.994Z,85.25
2023-01-03T07:01:06.100Z,86.44
2023-01-03T07:03:33.525Z,88.55
2023-01-03T07:06:00.659Z,87.36
2023-01-03T07:08:27.936Z,89.41
2023-01-03T07:10:55.379Z,86.39
2023-01-03T07:13:41.470Z,86.95
2023-01-03T07:16:15.047Z,89.03
2023-01-03T07:18:43.178Z,86.44
2023-01-03T07:21:10.763Z,87.63
2023-01-03T07:23:38.717Z,87.01
2023-01-03T07:26:06.373Z,87.71
2023-01-03T07:28:33.821Z,82.21
2023-01-03T07:31:03.226Z,86.51
2023-01-03T07:33:30.960Z,85.58
2023-01-03T07:36:11.504Z,81.21
2023-01-03T07:38:41.336Z,83.70
2023-01-03T07:41:08.884Z,84.29
2023-01-03T07:43:38.151Z,85.94
2023-01-03T07:46:07.838Z,87.51
2023-01-03T07:48:35.602Z,86.89
2023-01-03T07:51:03.590Z,83.49
2023-01-03T07:53:31.793Z,87.13
2023-01-03T07:56:09.095Z,84.56
2023-01-03T07:58:41.343Z,84.56
2023-01-03T08:01:09.648Z,80.98
2023-01-03T08:03:38.430Z,78.40
2023-01-03T08:06:08.406Z,77.90
2023-01-03T08:08:36.199Z,77.41
2023-01-03T08:11:22.393Z,77.16
2023-01-03T08:13:50.266Z,78.68
2023-01-03T08:16:18.934Z,79.73
2023-01-03T08:18:46.324Z,80.27
2023-01-03T08:21:14.990Z,81.13
2023-01-03T08:23:42.922Z,81.35
2023-01-03T08:26:15.092Z,80.76
2023-01-03T08:28:43.935Z,82.99
2023-01-03T08:31:31.668Z,78.75
2023-01-03T08:34:02.042Z,79.56
2023-01-03T08:36:34.082Z,79.08
2023-01-03T08:39:07.377Z,80.31
2023-01-03T08:41:38.674Z,80.55
2023-01-03T08:44:07.151Z,80.61
2023-01-03T08:46:34.832Z,79.76
2023-01-03T08:49:02.436Z,80.90
2023-01-03T08:51:30.039Z,79.91
2023-01-03T08:53:57.371Z,78.48
2023-01-03T08:56:24.727Z,79.58
2023-01-03T08:58:52.126Z,80.20
2023-01-03T09:01:21.050Z,84.06
2023-01-03T09:03:48.544Z,82.56
2023-01-03T09:06:16.100Z,84.41
2023-01-03T09:08:43.468Z,82.45
2023-01-03T09:11:11.300Z,80.93
2023-01-03T09:13:38.908Z,82.05
2023-01-03T09:16:08.879Z,83.21
2023-01-03T09:18:37.541Z,81.42
2023-01-03T09:21:05.459Z,82.62
2023-01-03T09:23:34.245Z,79.68
2023-01-03T09:26:01.713Z,80.79
2023-01-03T09:28:29.988Z,79.57
2023-01-03T09:30:58.070Z,78.77
2023-01-03T09:33:28.558Z,77.04
2023-01-03T09:35:56.392Z,79.28
2023-01-03T09:38:23.782Z,79.20
2023-01-03T09:41:03.189Z,75.91
2023-01-03T09:43:37.113Z,79.46
2023-01-03T09:46:06.014Z,79.10
2023-01-03T09:48:35.942Z,78.06
2023-01-03T09:51:25.904Z,79.58
2023-01-03T09:54:10.854Z,80.10
2023-01-03T09:56:56.734Z,79.80
2023-01-03T09:59:43.127Z,79.70
2023-01-03T10:02:48.141Z,80.76
2023-01-03T10:05:34.120Z,79.36
2023-01-03T10:08:28.390Z,78.41
2023-01-03T10:11:10.306Z,75.65
2023-01-03T10:13:57.080Z,76.47
2023-01-03T10:16:42.032Z,77.26
2023-01-03T10:19:19.579Z,79.25
2023-01-03T10:22:10.467Z,78.48
2023-01-03T10:24:46.812Z,77.94
2023-01-03T10:27:25.321Z,79.35
2023-01-03T10:29:55.933Z,77.12
2023-01-03T10:32:54.188Z,80.78
2023-01-03T10:35:29.786Z,80.14
2023-01-03T10:37:58.550Z,80.19
2023-01-03T10:40:50.205Z,79.17
2023-01-03T10:43:28.502Z,77.74
2023-01-03T10:46:01.720Z,77.39
2023-01-03T10:49:16.822Z,76.79
2023-01-03T10:51:40.049Z,76.32
2023-01-03T10:54:32.148Z,76.96
2023-01-03T10:56:59.626Z,76.46
2023-01-03T10:59:27.966Z,77.91
2023-01-03T11:02:12.888Z,75.68
2023-01-03T11:04:40.882Z,75.16
2023-01-03T11:07:08.108Z,74.50
2023-01-03T11:09:55.045Z,74.38
2023-01-03T11:12:34.126Z,73.14
2023-01-03T11:15:20.908Z,72.77
2023-01-03T11:17:56.830Z,74.29
2023-01-03T11:20:36.146Z,72.41
2023-01-03T11:23:10.622Z,73.42
2023-01-03T11:25:54.153Z,72.58
2023-01-03T11:29:01.481Z,72.27
2023-01-03T11:31:40.512Z,71.67
2023-01-03T11:35:20.258Z,73.64
2023-01-03T11:37:46.054Z,73.73
2023-01-03T11:40:25.986Z,72.70
2023-01-03T11:42:53.323Z,72.67
2023-01-03T11:45:30.715Z,71.59
2023-01-03T11:48:27.650Z,72.45
2023-01-03T11:51:18.047Z,71.84
2023-01-03T11:54:05.383Z,72.10
2023-01-03T11:56:44.761Z,71.83
2023-01-03T11:59:50.621Z,70.83
2023-01-03T12:02:36.784Z,70.24
2023-01-03T12:05:10.244Z,71.25
2023-01-03T12:07:48.962Z,70.90
2023-01-03T12:10:35.072Z,71.25
2023-01-03T12:13:10.703Z,69.93
2023-01-03T12:15:56.491Z,69.86
2023-01-03T12:18:41.960Z,69.84
2023-01-03T12:21:22.038Z,70.22
2023-01-03T12:24:03.146Z,72.21
2023-01-03T12:26:31.069Z,71.77
2023-01-03T12:29:21.310Z,72.34
2023-01-03T12:31:51.700Z,70.62
2023-01-03T12:34:37.432Z,71.45
2023-01-03T12:37:20.834Z,70.94
2023-01-03T12:39:55.487Z,70.13
2023-01-03T12:42:43.285Z,70.61
2023-01-03T12:45:34.666Z,70.29
2023-01-03T12:48:27.599Z,71.19
2023-01-03T12:50:55.229Z,71.18
2023-01-03T12:54:27.628Z,70.19
2023-01-03T12:57:25.927Z,69.98
2023-01-03T13:00:08.784Z,69.02
2023-01-03T13:02:39.550Z,70.65
2023-01-03T13:05:35.176Z,71.20
2023-01-03T13:08:33.094Z,71.89
2023-01-03T13:11:12.308Z,71.32
2023-01-03T13:13:49.446Z,73.16
2023-01-03T13:16:36.706Z,74.01
2023-01-03T13:19:22.423Z,72.41
2023-01-03T13:21:52.713Z,73.02
2023-01-03T13:24:49.454Z,71.04
2023-01-03T13:27:22.859Z,70.98
2023-01-03T13:29:50.159Z,71.01
2023-01-03T13:32:25.311Z,70.28
2023-01-03T13:34:58.876Z,70.27
2023-01-03T13:37:27.699Z,69.39
2023-01-03T13:39:58.420Z,69.48
2023-01-03T13:42:34.937Z,68.67
2023-01-03T13:45:11.486Z,69.16
2023-01-03T13:47:42.320Z,69.30
2023-01-03T13:50:28.371Z,69.26
2023-01-03T13:52:58.639Z,69.67
2023-01-03T13:55:55.097Z,69.71
2023-01-03T13:58:27.657Z,68.43
2023-01-03T14:01:05.257Z,70.75
2023-01-03T14:04:14.671Z,69.76
2023-01-03T14:06:47.564Z,69.49
2023-01-03T14:09:36.987Z,70.24
2023-01-03T14:12:33.682Z,70.73
2023-01-03T14:15:21.241Z,69.63
2023-01-03T14:17:58.267Z,69.77
2023-01-03T14:20:32.699Z,70.12
2023-01-03T14:23:31.280Z,69.60
2023-01-03T14:25:54.442Z,69.95
2023-01-03T14:28:25.215Z,69.71
2023-01-03T14:31:02.986Z,70.45
2023-01-03T14:33:36.213Z,72.13
2023-01-03T14:36:09.788Z,71.25
2023-01-03T14:38:37.063Z,70.52
2023-01-03T14:41:04.611Z,69.42
2023-01-03T14:43:34.196Z,69.84
2023-01-03T14:46:07.088Z,68.96
2023-01-03T14:48:34.633Z,69.05
2023-01-03T14:51:03.486Z,70.61
2023-01-03T14:53:33.046Z,70.00
2023-01-03T14:56:00.752Z,70.84
2023-01-03T14:58:36.199Z,70.92
2023-01-03T15:01:05.661Z,71.59
2023-01-03T15:03:39.204Z,71.48
2023-01-03T15:06:24.214Z,71.01
2023-01-03T15:08:55.955Z,71.96
2023-01-03T15:12:01.826Z,72.01
2023-01-03T15:14:33.890Z,71.61
2023-01-03T15:17:23.437Z,71.66
2023-01-03T15:19:54.499Z,71.63
2023-01-03T15:22:24.268Z,71.73
2023-01-03T15:25:01.924Z,72.07
2023-01-03T15:27:38.208Z,71.93
2023-01-03T15:30:15.521Z,72.58
2023-01-03T15:32:49.233Z,71.30
2023-01-03T15:35:40.071Z,72.36
2023-01-03T15:38:26.540Z,72.68
2023-01-03T15:40:53.941Z,72.70
2023-01-03T15:43:23.817Z,72.52
2023-01-03T15:46:10.433Z,73.43
2023-01-03T15:48:38.291Z,71.89
2023-01-03T15:51:06.410Z,71.55
2023-01-03T15:53:42.789Z,71.78
2023-01-03T15:56:29.756Z,71.92
2023-01-03T15:58:57.598Z,72.91
2023-01-03T16:01:25.690Z,73.09
2023-01-03T16:03:53.940Z,73.14
2023-01-03T16:06:21.535Z,74.77
2023-01-03T16:08:48.908Z,74.84
2023-01-03T16:11:21.058Z,75.07
2023-01-03T16:13:53.724Z,75.29
2023-01-03T16:16:35.857Z,74.46
2023-01-03T16:19:04.289Z,74.80
2023-01-03T16:21:31.766Z,74.10
2023-01-03T16:23:59.352Z,73.81
2023-01-03T16:26:26.866Z,72.62
2023-01-03T16:28:54.267Z,74.48
2023-01-03T16:31:28.890Z,73.80
2023-01-03T16:33:56.345Z,75.31
2023-01-03T16:36:37.083Z,75.67
2023-01-03T16:39:06.980Z,74.02
2023-01-03T16:41:34.320Z,75.98
2023-01-03T16:44:01.676Z,75.20
2023-01-03T16:46:29.583Z,75.44
2023-01-03T16:48:58.075Z,75.08
2023-01-03T16:51:31.204Z,75.03
2023-01-03T16:53:59.265Z,75.67
2023-01-03T16:56:27.170Z,75.30
2023-01-03T16:58:54.374Z,76.68
2023-01-03T17:01:21.746Z,76.99
2023-01-03T17:03:49.126Z,75.73
2023-01-03T17:06:27.352Z,75.29
2023-01-03T17:08:57.813Z,74.66
2023-01-03T17:11:26.467Z,76.96
2023-01-03T17:13:59.471Z,77.27
2023-01-03T17:16:26.904Z,77.58
2023-01-03T17:18:54.223Z,76.45
2023-01-03T17:21:27.164Z,76.31
2023-01-03T17:23:59.903Z,75.92
2023-01-03T17:26:27.989Z,75.52
2023-01-03T17:28:55.615Z,75.57
2023-01-03T17:31:24.860Z,75.48
2023-01-03T17:33:52.776Z,74.49
2023-01-03T17:36:31.003Z,75.78
2023-01-03T17:39:02.868Z,75.67
2023-01-03T17:41:50.885Z,75.04
2023-01-03T17:44:18.462Z,76.72
2023-01-03T17:47:04.474Z,77.76
2023-01-03T17:49:31.959Z,78.61
2023-01-03T17:52:01.874Z,78.65
2023-01-03T17:54:37.475Z,80.66
2023-01-03T17:57:05.472Z,81.22
2023-01-03T17:59:32.990Z,79.64
2023-01-03T18:02:00.791Z,79.63
2023-01-03T18:04:50.299Z,81.15
2023-01-03T18:10:22.913Z,81.00
2023-01-03T18:12:50.718Z,80.62
2023-01-03T18:15:20.784Z,82.79
2023-01-03T18:17:49.015Z,83.20
2023-01-03T18:20:18.255Z,82.96
2023-01-03T18:22:46.043Z,82.50
2023-01-03T18:25:22.451Z,82.10
2023-01-03T18:27:54.136Z,81.39
2023-01-03T18:30:21.636Z,81.42
2023-01-03T18:32:49.174Z,82.51
2023-01-03T18:35:24.240Z,81.59
2023-01-03T18:37:55.739Z,84.21
2023-01-03T18:40:27.711Z,81.45
2023-01-03T18:43:10.292Z,82.07
2023-01-03T18:45:38.925Z,81.45
2023-01-03T18:48:06.670Z,80.94
2023-01-03T18:50:34.532Z,80.38
2023-01-03T18:53:04.396Z,80.39
2023-01-03T18:55:35.303Z,79.49
2023-01-03T18:58:28.639Z,80.84
2023-01-03T19:00:55.971Z,81.16
2023-01-03T19:03:29.490Z,82.45
2023-01-03T19:05:58.936Z,80.73
2023-01-03T19:08:29.999Z,82.96
2023-01-03T19:11:06.295Z,81.77
2023-01-03T19:13:50.519Z,84.24
2023-01-03T19:16:30.430Z,83.80
2023-01-03T19:18:58.499Z,83.81
2023-01-03T19:21:30.544Z,84.37
2023-01-03T19:24:13.874Z,85.05
2023-01-03T19:26:48.608Z,83.60
2023-01-03T19:29:23.931Z,81.19
2023-01-03T19:31:53.471Z,82.42
2023-01-03T19:34:26.237Z,82.42
2023-01-03T19:36:54.837Z,83.69
2023-01-03T19:39:25.605Z,82.74
2023-01-03T19:42:16.704Z,81.65
2023-01-03T19:44:44.592Z,80.08
2023-01-03T19:47:14.987Z,80.88
2023-01-03T19:49:43.375Z,83.88
2023-01-03T19:52:10.869Z,85.08
2023-01-03T19:54:38.345Z,85.53
2023-01-03T19:57:25.173Z,82.51
2023-01-03T19:59:58.018Z,82.10
2023-01-03T20:02:36.955Z,83.53
2023-01-03T20:05:22.903Z,82.43
2023-01-03T20:07:50.994Z,81.38
2023-01-03T20:10:23.999Z,82.08
2023-01-03T20:12:56.170Z,80.33
2023-01-03T20:15:28.729Z,81.02
2023-01-03T20:17:56.340Z,81.68
2023-01-03T20:20:27.940Z,83.66
2023-01-03T20:23:10.136Z,82.19
2023-01-03T20:25:37.774Z,83.19
2023-01-03T20:28:05.771Z,83.50
2023-01-03T20:30:34.138Z,81.43
2023-01-03T20:33:01.588Z,82.40
2023-01-03T20:38:24.681Z,81.67
2023-01-03T20:40:53.232Z,82.70
2023-01-03T20:43:20.676Z,82.11
2023-01-03T20:45:51.720Z,83.60
2023-01-03T20:48:25.018Z,84.72
2023-01-03T20:50:52.740Z,83.50
2023-01-03T20:53:23.058Z,83.15
2023-01-03T20:55:51.336Z,83.86
2023-01-03T20:58:21.709Z,83.37
2023-01-03T21:00:49.145Z,84.41
2023-01-03T21:03:17.118Z,84.61
2023-01-03T21:05:44.733Z,84.82
2023-01-03T21:08:35.103Z,84.24
2023-01-03T21:11:02.542Z,84.00
2023-01-03T21:13:29.866Z,85.68
2023-01-03T21:15:57.159Z,83.88
2023-01-03T21:18:24.450Z,85.87
2023-01-03T21:20:52.053Z,84.86
2023-01-03T21:23:22.589Z,85.73
2023-01-03T21:25:50.727Z,84.05
2023-01-03T21:28:18.297Z,85.76
2023-01-03T21:30:45.617Z,85.65
2023-01-03T21:33:21.725Z,83.52
2023-01-03T21:35:50.581Z,82.63
2023-01-03T21:38:18.878Z,83.60
2023-01-03T21:40:49.225Z,82.17
2023-01-03T21:43:16.916Z,84.78
2023-01-03T21:45:46.688Z,84.33
2023-01-03T21:48:16.620Z,81.96
2023-01-03T21:50:45.925Z,82.65
2023-01-03T21:53:14.864Z,83.74
2023-01-03T21:55:42.322Z,84.18
2023-01-03T21:58:22.044Z,80.65
2023-01-03T22:00:49.410Z,77.95
2023-01-03T22:03:36.412Z,75.73
2023-01-03T22:06:08.731Z,79.00
2023-01-03T22:08:36.071Z,80.61
2023-01-03T22:11:03.898Z,79.82
2023-01-03T22:13:31.704Z,80.00
2023-01-03T22:16:07.339Z,79.80
2023-01-03T22:18:35.371Z,80.95
2023-01-03T22:21:08.264Z,81.25
2023-01-03T22:23:36.744Z,80.34
2023-01-03T22:26:10.555Z,81.87
2023-01-03T22:28:40.037Z,79.47
2023-01-03T22:31:18.867Z,81.63
2023-01-03T22:33:47.531Z,82.04
2023-01-03T22:36:15.568Z,82.15
2023-01-03T22:38:43.372Z,80.45
2023-01-03T22:41:13.059Z,82.73
2023-01-03T22:43:41.218Z,82.27
2023-01-03T22:46:09.952Z,81.37
2023-01-03T22:48:37.732Z,82.88
2023-01-03T22:51:07.097Z,82.65
2023-01-03T22:53:35.268Z,81.95
2023-01-03T22:56:06.911Z,82.98
2023-01-03T22:58:35.016Z,80.98
2023-01-03T23:01:07.303Z,81.62
2023-01-03T23:03:34.798Z,83.41
2023-01-03T23:06:10.975Z,83.91
2023-01-03T23:08:38.306Z,80.57
2023-01-03T23:11:31.477Z,82.45
2023-01-03T23:14:02.541Z,81.76
2023-01-03T23:16:31.221Z,82.01
2023-01-03T23:18:59.268Z,81.22
2023-01-03T23:21:26.495Z,81.68
2023-01-03T23:23:53.790Z,81.81
2023-01-03T23:26:23.443Z,81.59
2023-01-03T23:28:57.780Z,81.16
2023-01-03T23:31:27.335Z,80.48
2023-01-03T23:33:56.581Z,81.95
2023-01-03T23:36:24.069Z,83.36
2023-01-03T23:38:51.390Z,83.42
2023-01-03T23:41:19.695Z,83.34
2023-01-03T23:43:47.114Z,81.59
2023-01-03T23:46:17.472Z,81.99
2023-01-03T23:48:45.112Z,81.07
2023-01-03T23:51:12.541Z,81.41
2023-01-03T23:53:42.012Z,81.99
2023-01-03T23:56:13.612Z,80.48
2023-01-03T23:58:41.301Z,80.98
